CYYG

Charlottetown Airport

Charlottetown, Prince Edward Island, Canada
METAR CYYG 100600Z 19008KT 2 1/2SM -SN SCT008 BKN022 OVC062 M07/M08 A2997 RMK SF3SC3SC2 /S01/ SLP154
Observed Flight Rules
Dec-10 @ 06:00 UTC (38 minutes ago) Instrument Flight Rules
Wind Visibility Clouds Conditions
190° at 8 knots 2 1/2 miles
  • Scattered at 800' AGL
  • Broken at 2,200' AGL
  • Overcast at 6,200' AGL
  • Light Snow
Temperatures Readings
Current -7°C / 19°F
Dewpoint -8°C / 18°F
Humidity 93%
Altimeter 29.97" Hg
Pressure 1015.4 hPa
Elevation 54
METAR CYYG 100600Z 19008KT 2 1/2SM -SN SCT008 BKN022 OVC062 M07/M08 A2997 RMK SF3SC3SC2 /S01/ SLP154
Observed Flight Rules
Dec-10 @ 06:00 UTC
(38 minutes ago)
IFR
Wind Visibility
190° at 8 knots 2 1/2 miles
Clouds
  • Scattered at 800' AGL
  • Broken at 2,200' AGL
  • Overcast at 6,200' AGL
Conditions
  • Light Snow
Temperature Dewpoint
-7°C / 19°F -8°C / 18°F
Humidity Altimeter Pressure
93% 29.97" Hg 1015.4 hPa